Devils Tower Natl Monument, Wyoming
Current Conditions -  °F | °C
As of 10:35 PM on Friday 24 Oct 2014 (Local Time) from KW43 Reporting Station
Broken Clouds Broken Clouds  
Wind Chill: 50°   Ceiling: 12000
Heat Index: 50°   Visibility: 10mi
Dew Point: 28°   Wind: 5mph
Humidity: 43%   Direction: 70°ENE
Pressure: 30.15"   Gusts: NA
Location:  44.57°N, 104.82°W
Report Text: KW43 250435Z AUTO 07004KT 10SM BKN120 10/M02 A3015 RMK AO2
Loading
Personal Weather Stations






























Interactive Weather Map
Tropical Storm Tracking
New forecast layout! Learn more

10-Day Weather Forecast

Advertisements
Track Severe Weather on mobile